Grimstrup, Denmark
Current Conditions -  °F | °C
As of 12:20 AM on Saturday 01 Nov 2014 (Local Time) from EKEB Reporting Station
Haze Haze  
Wind Chill: 54°   Ceiling: 18000
Heat Index: 54°   Visibility: 1.6mi
Dew Point: 54°   Wind: 6mph
Humidity: 100%   Direction: 130°SE
Pressure: 30.06"   Gusts: NA
Location:  55.53°N, 8.66°E
Report Text: EKEB 312320Z AUTO 13005KT 2600NDV BR FEW003/// BKN180///12/12 Q1018
Loading
Personal Weather Stations






























Interactive Weather Map New forecast layout! Learn more

10-Day Weather Forecast

Advertisements
Track Severe Weather on mobile